createdAt,value
2018-06-23T00:00:32.851Z,0
2018-06-23T00:01:40.914Z,0
2018-06-23T00:02:48.984Z,0
2018-06-23T00:03:57.006Z,0
2018-06-23T00:05:05.106Z,0
2018-06-23T00:06:13.175Z,0
2018-06-23T00:07:21.248Z,0
2018-06-23T00:08:29.296Z,0
2018-06-23T00:09:37.325Z,0
2018-06-23T00:10:45.426Z,0
2018-06-23T00:11:53.484Z,0
2018-06-23T00:13:01.541Z,0
2018-06-23T00:14:09.617Z,0
2018-06-23T00:15:17.653Z,0
2018-06-23T00:16:25.741Z,0
2018-06-23T00:17:33.802Z,0
2018-06-23T00:18:41.865Z,0
2018-06-23T00:19:49.935Z,0
2018-06-23T00:20:57.990Z,0
2018-06-23T00:22:06.058Z,0
2018-06-23T00:23:14.130Z,0
2018-06-23T00:24:22.185Z,0
2018-06-23T00:25:30.243Z,0
2018-06-23T00:26:38.310Z,0
2018-06-23T00:27:46.364Z,0
2018-06-23T00:28:54.425Z,0
2018-06-23T00:30:02.495Z,0
2018-06-23T00:31:10.553Z,0
2018-06-23T00:32:18.615Z,0
2018-06-23T00:33:26.681Z,0
2018-06-23T00:34:34.756Z,0
2018-06-23T00:35:42.811Z,0
2018-06-23T00:36:50.878Z,0
2018-06-23T00:37:58.949Z,0
2018-06-23T00:39:06.984Z,0
2018-06-23T00:40:15.072Z,0
2018-06-23T00:41:23.133Z,0
2018-06-23T00:42:31.196Z,0
2018-06-23T00:43:39.259Z,0
2018-06-23T00:44:47.309Z,0
2018-06-23T00:45:55.384Z,0
2018-06-23T00:47:03.448Z,0
2018-06-23T00:48:11.513Z,0
2018-06-23T00:49:19.601Z,0
2018-06-23T00:50:27.600Z,0
2018-06-23T00:51:35.696Z,0
2018-06-23T00:52:43.762Z,0
2018-06-23T00:53:51.834Z,0
2018-06-23T00:54:59.864Z,0
2018-06-23T00:56:07.938Z,0
2018-06-23T00:57:16.006Z,0
2018-06-23T00:58:24.087Z,0
2018-06-23T00:59:32.121Z,0
2018-06-23T01:00:40.188Z,0
2018-06-23T01:01:48.250Z,0
2018-06-23T01:02:56.298Z,0
2018-06-23T01:04:04.377Z,0
2018-06-23T01:05:12.444Z,0
2018-06-23T01:06:20.499Z,0
2018-06-23T01:07:28.547Z,0
2018-06-23T01:08:36.626Z,0
2018-06-23T01:09:44.687Z,0
2018-06-23T01:10:52.763Z,0
2018-06-23T01:12:00.813Z,0
2018-06-23T01:13:08.873Z,0
2018-06-23T01:14:16.906Z,0
2018-06-23T01:15:24.999Z,0
2018-06-23T01:16:33.058Z,0
2018-06-23T01:17:41.125Z,0
2018-06-23T01:18:49.180Z,0
2018-06-23T01:19:57.213Z,0
2018-06-23T01:21:05.306Z,0
2018-06-23T01:22:13.371Z,0
2018-06-23T01:23:21.431Z,0
2018-06-23T01:24:29.507Z,0
2018-06-23T01:25:37.527Z,0
2018-06-23T01:26:45.618Z,0
2018-06-23T01:27:53.680Z,0
2018-06-23T01:29:01.764Z,0
2018-06-23T01:30:09.816Z,0
2018-06-23T01:31:17.868Z,0
2018-06-23T01:32:25.959Z,0
2018-06-23T01:33:34.001Z,0
2018-06-23T01:34:42.095Z,0
2018-06-23T01:35:50.117Z,0
2018-06-23T01:36:58.186Z,0
2018-06-23T01:38:06.255Z,0
2018-06-23T01:39:14.302Z,0
2018-06-23T01:40:22.365Z,0
2018-06-23T01:41:30.425Z,0
2018-06-23T01:42:38.489Z,0
2018-06-23T01:43:46.553Z,0
2018-06-23T01:44:54.624Z,0
2018-06-23T01:46:02.678Z,0
2018-06-23T01:47:10.745Z,0
2018-06-23T01:48:18.803Z,0
2018-06-23T01:49:26.847Z,0
2018-06-23T01:50:34.923Z,0
2018-06-23T01:51:42.994Z,0
2018-06-23T01:52:51.050Z,0
2018-06-23T01:53:59.116Z,0
2018-06-23T01:55:07.142Z,0
2018-06-23T01:56:15.230Z,0
2018-06-23T01:57:23.295Z,0
2018-06-23T01:58:31.351Z,0
2018-06-23T01:59:39.427Z,0
2018-06-23T02:00:47.449Z,0
2018-06-23T02:01:55.552Z,0
2018-06-23T02:03:03.602Z,0
2018-06-23T02:04:11.668Z,0
2018-06-23T02:05:19.720Z,0
2018-06-23T02:06:27.786Z,0
2018-06-23T02:07:35.854Z,0
2018-06-23T02:08:43.903Z,0
2018-06-23T02:09:51.977Z,0
2018-06-23T02:11:00.031Z,0
2018-06-23T02:12:08.096Z,0
2018-06-23T02:13:16.165Z,0
2018-06-23T02:14:24.224Z,0
2018-06-23T02:15:32.283Z,0
2018-06-23T02:16:40.348Z,0
2018-06-23T02:17:48.407Z,0
2018-06-23T02:18:56.465Z,0
2018-06-23T02:20:04.523Z,0
2018-06-23T02:21:12.618Z,0
2018-06-23T02:22:20.649Z,0
2018-06-23T02:23:28.718Z,0
2018-06-23T02:24:36.763Z,0
2018-06-23T02:25:44.829Z,0
2018-06-23T02:26:52.895Z,0
2018-06-23T02:28:00.949Z,0
2018-06-23T02:29:09.016Z,0
2018-06-23T02:30:17.050Z,0
2018-06-23T02:31:25.145Z,0
2018-06-23T02:32:33.200Z,0
2018-06-23T02:33:41.263Z,0
2018-06-23T02:34:49.326Z,0
2018-06-23T02:35:57.365Z,0
2018-06-23T02:37:05.450Z,0
2018-06-23T02:38:13.523Z,0
2018-06-23T02:39:21.564Z,0
2018-06-23T02:40:29.634Z,0
2018-06-23T02:41:37.677Z,0
2018-06-23T02:42:45.772Z,0
2018-06-23T02:43:53.834Z,0
2018-06-23T02:45:01.900Z,0
2018-06-23T02:46:09.959Z,4
2018-06-23T02:47:18.012Z,4
2018-06-23T02:48:26.094Z,0
2018-06-23T02:49:34.147Z,4
2018-06-23T02:50:42.200Z,4
2018-06-23T02:51:50.270Z,4
2018-06-23T02:52:58.321Z,4
2018-06-23T02:54:06.390Z,4
2018-06-23T02:55:14.453Z,4
2018-06-23T02:56:22.507Z,8
2018-06-23T02:57:30.580Z,8
2018-06-23T02:58:38.642Z,12
2018-06-23T02:59:46.696Z,16
2018-06-23T03:00:54.771Z,16
2018-06-23T03:02:02.831Z,16
2018-06-23T03:03:10.881Z,20
2018-06-23T03:04:18.941Z,28
2018-06-23T03:05:27.006Z,28
2018-06-23T03:06:35.080Z,32
2018-06-23T03:07:43.144Z,40
2018-06-23T03:08:51.194Z,44
2018-06-23T03:09:59.260Z,52
2018-06-23T03:11:07.301Z,60
2018-06-23T03:12:15.378Z,68
2018-06-23T03:13:23.458Z,76
2018-06-23T03:14:31.494Z,88
2018-06-23T03:15:39.558Z,96
2018-06-23T03:16:47.610Z,108
2018-06-23T03:17:55.689Z,120
2018-06-23T03:19:03.762Z,136
2018-06-23T03:20:11.821Z,152
2018-06-23T03:21:19.881Z,168
2018-06-23T03:22:27.952Z,184
2018-06-23T03:23:35.996Z,200
2018-06-23T03:24:44.061Z,220
2018-06-23T03:25:52.123Z,244
2018-06-23T03:27:00.195Z,264
2018-06-23T03:28:08.248Z,288
2018-06-23T03:29:16.398Z,312
2018-06-23T03:30:24.380Z,340
2018-06-23T03:31:32.428Z,368
2018-06-23T03:32:40.520Z,396
2018-06-23T03:33:48.574Z,428
2018-06-23T03:34:56.610Z,460
2018-06-23T03:36:04.685Z,492
2018-06-23T03:37:12.784Z,520
2018-06-23T03:38:20.811Z,560
2018-06-23T03:39:28.866Z,592
2018-06-23T03:40:36.919Z,628
2018-06-23T03:41:44.989Z,664
2018-06-23T03:42:53.057Z,700
2018-06-23T03:44:01.119Z,736
2018-06-23T03:45:09.193Z,776
2018-06-23T03:46:17.218Z,816
2018-06-23T03:47:25.300Z,860
2018-06-23T03:48:33.368Z,896
2018-06-23T03:49:41.430Z,940
2018-06-23T03:50:49.489Z,980
2018-06-23T03:51:57.534Z,1032
2018-06-23T03:53:05.616Z,1084
2018-06-23T03:54:13.675Z,1132
2018-06-23T03:55:21.744Z,1180
2018-06-23T03:56:29.811Z,1224
2018-06-23T03:57:37.863Z,1264
2018-06-23T03:58:45.926Z,1304
2018-06-23T03:59:53.987Z,1344
2018-06-23T04:01:02.041Z,1384
2018-06-23T04:02:10.111Z,1436
2018-06-23T04:03:18.194Z,1488
2018-06-23T04:04:26.239Z,1528
2018-06-23T04:05:34.304Z,1564
2018-06-23T04:06:42.361Z,1588
2018-06-23T04:07:50.426Z,1612
2018-06-23T04:08:58.482Z,1640
2018-06-23T04:10:06.543Z,1672
2018-06-23T04:11:14.610Z,1716
2018-06-23T04:12:22.668Z,1756
2018-06-23T04:13:30.739Z,1800
2018-06-23T04:14:38.801Z,1836
2018-06-23T04:15:46.834Z,1872
2018-06-23T04:16:54.916Z,1904
2018-06-23T04:18:02.991Z,1936
2018-06-23T04:19:11.044Z,1964
2018-06-23T04:20:19.614Z,1992
2018-06-23T04:21:27.132Z,2020
2018-06-23T04:22:36.874Z,2048
2018-06-23T04:23:44.788Z,2084
2018-06-23T04:24:53.147Z,2116
2018-06-23T04:25:59.415Z,2152
2018-06-23T04:27:07.713Z,2180
2018-06-23T04:28:15.802Z,2208
2018-06-23T04:29:23.847Z,2228
2018-06-23T04:30:31.893Z,2248
2018-06-23T04:31:39.962Z,2272
2018-06-23T04:32:47.785Z,2304
2018-06-23T04:33:55.837Z,2328
2018-06-23T04:35:03.906Z,2356
2018-06-23T04:36:11.979Z,2388
2018-06-23T04:37:20.033Z,2416
2018-06-23T04:38:28.104Z,2452
2018-06-23T04:39:36.162Z,2484
2018-06-23T04:40:44.226Z,2516
2018-06-23T04:41:52.275Z,2548
2018-06-23T04:43:00.355Z,2572
2018-06-23T04:44:08.404Z,2600
2018-06-23T04:45:16.472Z,2624
2018-06-23T04:46:26.526Z,2640
2018-06-23T04:47:34.491Z,2664
2018-06-23T04:48:40.659Z,2684
2018-06-23T04:49:48.714Z,2716
2018-06-23T04:50:56.771Z,2748
2018-06-23T04:52:04.834Z,2776
2018-06-23T04:53:12.914Z,2804
2018-06-23T04:54:20.969Z,2828
2018-06-23T04:55:29.031Z,2856
2018-06-23T04:56:37.073Z,2876
2018-06-23T04:57:45.149Z,2892
2018-06-23T04:58:53.200Z,2912
2018-06-23T05:00:01.291Z,2932
2018-06-23T05:01:09.339Z,2948
2018-06-23T05:02:17.376Z,2980
2018-06-23T05:03:25.467Z,3008
2018-06-23T05:04:33.531Z,3048
2018-06-23T05:05:41.564Z,3436
2018-06-23T05:06:49.667Z,4132
2018-06-23T05:07:57.707Z,4808
2018-06-23T05:09:05.980Z,3652
2018-06-23T05:10:13.851Z,3552
2018-06-23T05:11:21.907Z,3476
2018-06-23T05:12:29.981Z,3276
2018-06-23T05:13:38.036Z,3296
2018-06-23T05:14:46.119Z,3320
2018-06-23T05:15:54.155Z,3256
2018-06-23T05:17:02.239Z,3272
2018-06-23T05:18:10.286Z,3292
2018-06-23T05:19:18.348Z,3316
2018-06-23T05:20:26.427Z,3336
2018-06-23T05:21:34.489Z,3364
2018-06-23T05:22:42.539Z,3392
2018-06-23T05:23:50.594Z,3424
2018-06-23T05:24:58.664Z,3452
2018-06-23T05:26:06.822Z,3464
2018-06-23T05:27:14.784Z,3476
2018-06-23T05:28:22.867Z,3488
2018-06-23T05:29:30.920Z,3512
2018-06-23T05:30:38.998Z,3524
2018-06-23T05:31:47.066Z,3532
2018-06-23T05:32:55.116Z,3532
2018-06-23T05:34:03.187Z,3540
2018-06-23T05:35:11.259Z,3560
2018-06-23T05:36:19.300Z,3572
2018-06-23T05:37:27.978Z,3528
2018-06-23T05:38:35.438Z,3648
2018-06-23T05:39:43.499Z,4156
2018-06-23T05:40:51.561Z,3984
2018-06-23T05:41:59.638Z,3672
2018-06-23T05:43:07.661Z,3688
2018-06-23T05:44:16.026Z,3708
2018-06-23T05:45:24.017Z,3744
2018-06-23T05:46:32.063Z,3780
2018-06-23T05:47:39.946Z,3816
2018-06-23T05:48:48.020Z,3816
2018-06-23T05:49:56.107Z,3840
2018-06-23T05:51:04.135Z,3820
2018-06-23T05:52:12.199Z,3804
2018-06-23T05:53:20.270Z,3848
2018-06-23T05:54:28.333Z,3856
2018-06-23T05:55:36.385Z,3860
2018-06-23T05:56:44.454Z,3924
2018-06-23T05:57:52.523Z,3940
2018-06-23T05:59:00.609Z,3964
2018-06-23T06:00:08.649Z,3976
2018-06-23T06:01:16.719Z,3964
2018-06-23T06:02:24.788Z,3972
2018-06-23T06:03:32.837Z,3988
2018-06-23T06:04:40.948Z,4020
2018-06-23T06:05:48.970Z,4052
2018-06-23T06:06:57.050Z,4076
2018-06-23T06:08:05.104Z,4084
2018-06-23T06:09:13.168Z,4088
2018-06-23T06:10:21.235Z,4084
2018-06-23T06:11:29.297Z,4088
2018-06-23T06:12:37.630Z,4104
2018-06-23T06:13:45.429Z,4132
2018-06-23T06:14:53.486Z,4168
2018-06-23T06:16:01.548Z,4204
2018-06-23T06:17:09.640Z,4224
2018-06-23T06:18:17.665Z,4248
2018-06-23T06:19:25.739Z,4272
2018-06-23T06:20:33.812Z,4292
2018-06-23T06:21:41.882Z,4312
2018-06-23T06:22:49.934Z,4332
2018-06-23T06:23:58.002Z,4352
2018-06-23T06:25:06.067Z,4360
2018-06-23T06:26:14.137Z,4376
2018-06-23T06:27:22.207Z,4404
2018-06-23T06:28:30.267Z,4444
2018-06-23T06:29:38.329Z,4472
2018-06-23T06:30:46.676Z,4524
2018-06-23T06:31:58.302Z,4600
2018-06-23T06:33:02.528Z,4652
2018-06-23T06:34:10.593Z,4668
2018-06-23T06:35:18.661Z,4756
2018-06-23T06:36:26.714Z,4696
2018-06-23T06:37:34.787Z,4704
2018-06-23T06:38:42.842Z,4716
2018-06-23T06:39:51.510Z,4764
2018-06-23T06:40:58.989Z,4820
2018-06-23T06:42:07.015Z,4864
2018-06-23T06:43:15.097Z,4904
2018-06-23T06:44:23.179Z,4968
2018-06-23T06:45:31.242Z,5068
2018-06-23T06:46:39.295Z,5164
2018-06-23T06:47:47.340Z,5212
2018-06-23T06:48:55.433Z,5276
2018-06-23T06:50:03.504Z,5364
2018-06-23T06:51:11.562Z,5428
2018-06-23T06:52:19.638Z,5480
2018-06-23T06:53:27.689Z,5596
2018-06-23T06:54:35.764Z,5752
2018-06-23T06:55:43.862Z,6076
2018-06-23T06:56:51.906Z,6272
2018-06-23T06:57:59.959Z,7196
2018-06-23T06:59:08.026Z,9384
2018-06-23T07:00:16.093Z,16740
2018-06-23T07:01:24.156Z,13716
2018-06-23T07:02:32.226Z,18400
2018-06-23T07:03:40.291Z,20416
2018-06-23T07:04:48.362Z,19552
2018-06-23T07:05:56.432Z,32000
2018-06-23T07:07:04.490Z,34368
2018-06-23T07:08:12.558Z,20832
2018-06-23T07:09:20.619Z,24768
2018-06-23T07:10:28.691Z,48224
2018-06-23T07:11:36.745Z,44160
2018-06-23T07:12:44.829Z,40320
2018-06-23T07:13:52.897Z,50560
2018-06-23T07:15:00.959Z,45568
2018-06-23T07:16:09.032Z,49056
2018-06-23T07:17:17.072Z,60512
2018-06-23T07:18:25.178Z,78560
2018-06-23T07:19:33.253Z,89248
2018-06-23T07:20:41.331Z,93152
2018-06-23T07:21:49.401Z,79552
2018-06-23T07:22:57.440Z,95104
2018-06-23T07:24:05.541Z,86816
2018-06-23T07:25:13.629Z,16324
2018-06-23T07:26:21.704Z,15276
2018-06-23T07:27:29.760Z,15424
2018-06-23T07:28:37.830Z,15360
2018-06-23T07:29:45.894Z,14936
2018-06-23T07:30:54.036Z,15120
2018-06-23T07:32:02.075Z,21120
2018-06-23T07:33:10.138Z,13380
2018-06-23T07:34:18.302Z,12212
2018-06-23T07:35:26.287Z,11988
2018-06-23T07:36:34.354Z,13380
2018-06-23T07:37:42.430Z,16132
2018-06-23T07:38:50.500Z,73824
2018-06-23T07:39:58.581Z,68480
2018-06-23T07:41:06.641Z,55424
2018-06-23T07:42:14.718Z,52352
2018-06-23T07:43:22.787Z,14196
2018-06-23T07:44:30.877Z,8140
2018-06-23T07:45:38.960Z,7468
2018-06-23T07:46:47.004Z,6952
2018-06-23T07:47:55.104Z,6560
2018-06-23T07:49:03.559Z,6244
2018-06-23T07:50:11.256Z,5584
2018-06-23T07:51:19.337Z,5512
2018-06-23T07:52:27.385Z,5908
2018-06-23T07:53:35.495Z,6452
2018-06-23T07:54:43.546Z,7004
2018-06-23T07:55:51.598Z,7256
2018-06-23T07:57:02.339Z,7024
2018-06-23T07:58:10.362Z,7156
2018-06-23T07:59:18.436Z,7660
2018-06-23T08:00:26.499Z,8852
2018-06-23T08:01:34.658Z,10308
2018-06-23T08:02:42.654Z,11728
2018-06-23T08:03:50.716Z,12896
2018-06-23T08:04:59.043Z,13896
2018-06-23T08:06:06.838Z,14216
2018-06-23T08:07:14.924Z,19136
2018-06-23T08:08:23.001Z,88384
2018-06-23T08:09:31.080Z,89568
2018-06-23T08:10:43.387Z,41824
2018-06-23T08:11:51.460Z,101184
2018-06-23T08:12:59.523Z,100288
2018-06-23T08:14:07.572Z,99360
2018-06-23T08:15:15.679Z,97984
2018-06-23T08:16:23.740Z,95392
2018-06-23T08:17:31.819Z,101824
2018-06-23T08:18:40.043Z,92960
2018-06-23T08:19:48.613Z,93248
2018-06-23T08:20:56.208Z,99264
2018-06-23T08:22:04.668Z,46528
2018-06-23T08:23:12.572Z,24928
2018-06-23T08:24:20.351Z,35456
2018-06-23T08:25:28.339Z,46784
2018-06-23T08:26:36.543Z,18496
2018-06-23T08:27:44.510Z,14676
2018-06-23T08:28:52.913Z,14960
2018-06-23T08:30:00.955Z,18144
2018-06-23T08:31:08.751Z,16352
2018-06-23T08:32:16.804Z,14616
2018-06-23T08:33:24.894Z,14788
2018-06-23T08:34:32.977Z,12972
2018-06-23T08:35:41.053Z,13572
2018-06-23T08:36:49.141Z,14248
2018-06-23T08:37:57.180Z,14540
2018-06-23T08:39:05.287Z,15588
2018-06-23T08:40:13.351Z,16476
2018-06-23T08:41:21.426Z,17696
2018-06-23T08:42:29.483Z,21472
2018-06-23T08:43:37.565Z,24000
2018-06-23T08:44:45.637Z,23232
2018-06-23T08:45:53.711Z,82944
2018-06-23T08:47:01.781Z,20512
2018-06-23T08:48:09.856Z,23584
2018-06-23T08:49:17.944Z,21472
2018-06-23T08:50:26.007Z,57856
2018-06-23T08:51:34.084Z,52832
2018-06-23T08:52:42.173Z,18176
2018-06-23T08:53:50.245Z,14476
2018-06-23T08:54:58.299Z,13020
2018-06-23T08:56:06.386Z,18944
2018-06-23T08:57:14.468Z,43136
2018-06-23T08:58:22.533Z,97152
2018-06-23T08:59:30.597Z,102688
2018-06-23T09:00:38.675Z,95840
2018-06-23T09:01:46.803Z,97248
2018-06-23T09:02:54.823Z,98848
2018-06-23T09:04:02.904Z,96832
2018-06-23T09:05:11.005Z,100512
2018-06-23T09:06:19.055Z,108640
2018-06-23T09:07:27.130Z,105088
2018-06-23T09:08:37.212Z,102176
2018-06-23T09:09:43.309Z,106432
2018-06-23T09:10:51.365Z,98944
2018-06-23T09:11:59.439Z,99456
2018-06-23T09:13:07.492Z,89536
2018-06-23T09:14:15.603Z,98560
2018-06-23T09:15:23.681Z,93568
2018-06-23T09:16:31.770Z,96224
2018-06-23T09:17:39.839Z,98016
2018-06-23T09:18:47.921Z,105120
2018-06-23T09:19:56.004Z,104928
2018-06-23T09:21:04.076Z,101472
2018-06-23T09:22:12.163Z,103520
2018-06-23T09:23:20.238Z,92544
2018-06-23T09:24:28.323Z,102656
2018-06-23T09:25:36.437Z,108128
2018-06-23T09:26:44.489Z,105248
2018-06-23T09:27:52.569Z,114400
2018-06-23T09:29:00.644Z,108064
2018-06-23T09:30:08.737Z,59584
2018-06-23T09:31:16.791Z,19552
2018-06-23T09:32:24.903Z,19840
2018-06-23T09:33:32.967Z,18624
2018-06-23T09:34:41.058Z,19232
2018-06-23T09:35:49.131Z,22720
2018-06-23T09:36:57.212Z,20768
2018-06-23T09:38:05.288Z,19840
2018-06-23T09:39:13.350Z,22848
2018-06-23T09:40:21.441Z,24480
2018-06-23T09:41:29.522Z,23104
2018-06-23T09:42:37.607Z,22432
2018-06-23T09:43:45.670Z,22400
2018-06-23T09:44:53.750Z,19808
2018-06-23T09:46:01.853Z,20064
2018-06-23T09:47:09.897Z,19584
2018-06-23T09:48:17.983Z,18496
2018-06-23T09:49:26.070Z,16884
2018-06-23T09:50:34.171Z,16864
2018-06-23T09:51:42.204Z,17312
2018-06-23T09:52:50.283Z,16480
2018-06-23T09:53:58.363Z,15988
2018-06-23T09:55:06.435Z,16992
2018-06-23T09:56:14.501Z,13608
2018-06-23T09:57:22.640Z,11600
2018-06-23T09:58:36.631Z,10356
2018-06-23T09:59:44.594Z,9764
2018-06-23T10:00:52.666Z,9996
2018-06-23T10:02:00.741Z,10652
2018-06-23T10:03:08.816Z,11656
2018-06-23T10:04:16.881Z,11952
2018-06-23T10:05:24.970Z,13660
2018-06-23T10:06:33.027Z,14020
2018-06-23T10:07:41.096Z,13656
2018-06-23T10:08:49.172Z,14696
2018-06-23T10:09:57.224Z,13884
2018-06-23T10:11:05.312Z,13032
2018-06-23T10:12:13.399Z,13992
2018-06-23T10:13:21.463Z,14812
2018-06-23T10:14:29.549Z,13308
2018-06-23T10:15:37.579Z,12560
2018-06-23T10:16:45.681Z,11748
2018-06-23T10:17:53.754Z,12072
2018-06-23T10:19:01.839Z,11016
2018-06-23T10:20:09.898Z,9164
2018-06-23T10:21:17.968Z,7692
2018-06-23T10:22:26.042Z,6864
2018-06-23T10:23:34.126Z,6528
2018-06-23T10:24:42.197Z,6628
2018-06-23T10:25:50.269Z,6244
2018-06-23T10:26:58.338Z,6188
2018-06-23T10:28:06.404Z,6144
2018-06-23T10:29:14.498Z,6056
2018-06-23T10:30:22.540Z,5992
2018-06-23T10:31:30.621Z,6060
2018-06-23T10:32:38.761Z,6296
2018-06-23T10:33:46.770Z,6436
2018-06-23T10:34:54.851Z,6668
2018-06-23T10:36:02.910Z,6920
2018-06-23T10:37:10.989Z,7088
2018-06-23T10:38:19.051Z,6600
2018-06-23T10:39:27.099Z,6752
2018-06-23T10:40:35.206Z,6492
2018-06-23T10:41:43.265Z,6840
2018-06-23T10:42:51.355Z,6732
2018-06-23T10:43:59.417Z,7072
2018-06-23T10:45:07.462Z,8348
2018-06-23T10:46:15.565Z,9000
2018-06-23T10:47:23.628Z,10024
2018-06-23T10:48:31.694Z,9264
2018-06-23T10:49:39.774Z,8352
2018-06-23T10:50:47.831Z,8128
2018-06-23T10:51:55.915Z,8880
2018-06-23T10:53:03.990Z,9576
2018-06-23T10:54:12.054Z,10480
2018-06-23T10:55:20.122Z,10076
2018-06-23T10:56:28.195Z,9952
2018-06-23T10:57:36.277Z,10864
2018-06-23T10:58:44.330Z,12312
2018-06-23T10:59:52.409Z,13104
2018-06-23T11:01:00.478Z,13776
2018-06-23T11:02:08.560Z,13564
2018-06-23T11:03:16.615Z,12800
2018-06-23T11:04:24.692Z,13784
2018-06-23T11:05:32.763Z,14604
2018-06-23T11:06:40.831Z,13752
2018-06-23T11:07:48.899Z,12400
2018-06-23T11:08:56.951Z,11724
2018-06-23T11:10:05.048Z,11544
2018-06-23T11:11:13.130Z,11836
2018-06-23T11:12:21.190Z,11428
2018-06-23T11:13:29.263Z,11324
2018-06-23T11:14:37.323Z,11572
2018-06-23T11:15:45.407Z,12760
2018-06-23T11:16:53.476Z,13364
2018-06-23T11:18:01.558Z,13216
2018-06-23T11:19:09.625Z,13764
2018-06-23T11:20:17.681Z,13356
2018-06-23T11:21:25.767Z,13744
2018-06-23T11:22:33.834Z,15644
2018-06-23T11:23:41.916Z,16428
2018-06-23T11:24:49.987Z,17184
2018-06-23T11:25:58.057Z,16640
2018-06-23T11:27:06.127Z,16704
2018-06-23T11:28:14.211Z,16128
2018-06-23T11:29:22.270Z,14876
2018-06-23T11:30:30.344Z,14336
2018-06-23T11:31:38.423Z,13808
2018-06-23T11:32:46.498Z,12800
2018-06-23T11:33:54.568Z,12352
2018-06-23T11:35:02.647Z,12280
2018-06-23T11:36:10.701Z,12800
2018-06-23T11:37:18.786Z,12924
2018-06-23T11:38:26.861Z,13276
2018-06-23T11:39:34.944Z,12680
2018-06-23T11:40:42.997Z,11460
2018-06-23T11:41:51.102Z,10536
2018-06-23T11:42:59.147Z,10664
2018-06-23T11:44:07.186Z,10652
2018-06-23T11:45:15.291Z,10528
2018-06-23T11:46:23.351Z,10584
2018-06-23T11:47:31.441Z,9596
2018-06-23T11:48:39.511Z,10296
2018-06-23T11:49:47.552Z,11056
2018-06-23T11:50:55.647Z,11720
2018-06-23T11:52:03.770Z,12144
2018-06-23T11:53:11.863Z,12220
2018-06-23T11:54:19.864Z,11776
2018-06-23T11:55:27.937Z,11680
2018-06-23T11:56:36.006Z,11420
2018-06-23T11:57:44.083Z,11808
2018-06-23T11:58:52.158Z,12144
2018-06-23T12:00:00.222Z,12824
2018-06-23T12:01:08.315Z,13592
2018-06-23T12:02:16.374Z,14840
2018-06-23T12:03:24.438Z,15368
2018-06-23T12:04:32.512Z,15512
2018-06-23T12:05:40.580Z,15368
2018-06-23T12:06:48.666Z,15920
2018-06-23T12:07:56.736Z,16608
2018-06-23T12:09:04.815Z,16576
2018-06-23T12:10:12.882Z,15416
2018-06-23T12:11:20.940Z,15236
2018-06-23T12:12:29.026Z,13964
2018-06-23T12:13:37.065Z,12388
2018-06-23T12:14:45.164Z,11492
2018-06-23T12:15:53.249Z,11320
2018-06-23T12:17:01.308Z,11796
2018-06-23T12:18:09.383Z,11904
2018-06-23T12:19:17.434Z,11804
2018-06-23T12:20:25.584Z,12004
2018-06-23T12:21:33.609Z,10956
2018-06-23T12:22:41.696Z,10500
2018-06-23T12:23:49.764Z,10928
2018-06-23T12:24:57.819Z,11492
2018-06-23T12:26:05.897Z,12192
2018-06-23T12:27:13.970Z,12300
2018-06-23T12:28:22.028Z,11996
2018-06-23T12:29:30.119Z,12024
2018-06-23T12:30:38.189Z,12088
2018-06-23T12:31:46.281Z,11668
2018-06-23T12:32:54.332Z,11532
2018-06-23T12:34:02.402Z,11776
2018-06-23T12:35:10.480Z,11808
2018-06-23T12:36:18.546Z,12028
2018-06-23T12:37:26.612Z,12152
2018-06-23T12:38:34.695Z,12568
2018-06-23T12:39:42.769Z,13448
2018-06-23T12:40:50.843Z,14476
2018-06-23T12:41:58.917Z,15024
2018-06-23T12:43:06.951Z,16092
2018-06-23T12:44:15.044Z,15652
2018-06-23T12:45:23.132Z,14872
2018-06-23T12:46:31.195Z,14392
2018-06-23T12:47:39.265Z,14768
2018-06-23T12:48:47.312Z,15652
2018-06-23T12:49:55.414Z,16096
2018-06-23T12:51:03.491Z,16320
2018-06-23T12:52:11.562Z,16032
2018-06-23T12:53:19.641Z,14568
2018-06-23T12:54:27.694Z,13484
2018-06-23T12:55:35.766Z,11940
2018-06-23T12:56:43.846Z,10440
2018-06-23T12:57:51.918Z,9612
2018-06-23T12:58:59.997Z,8664
2018-06-23T13:00:08.074Z,8488
2018-06-23T13:01:16.145Z,8724
2018-06-23T13:02:24.205Z,9016
2018-06-23T13:03:32.289Z,8940
2018-06-23T13:04:40.349Z,9236
2018-06-23T13:05:48.425Z,9380
2018-06-23T13:06:56.502Z,9456
2018-06-23T13:08:04.558Z,9376
2018-06-23T13:09:12.641Z,8576
2018-06-23T13:10:20.706Z,7744
2018-06-23T13:11:28.786Z,7480
2018-06-23T13:12:36.839Z,7196
2018-06-23T13:13:44.925Z,7064
2018-06-23T13:14:53.004Z,6900
2018-06-23T13:16:01.083Z,6416
2018-06-23T13:17:09.148Z,6452
2018-06-23T13:18:17.190Z,6556
2018-06-23T13:19:28.304Z,6412
2018-06-23T13:20:36.380Z,6456
2018-06-23T13:21:44.453Z,6680
2018-06-23T13:22:52.525Z,7276
2018-06-23T13:24:00.622Z,8116
2018-06-23T13:25:08.679Z,9072
2018-06-23T13:26:16.740Z,10152
2018-06-23T13:27:24.809Z,11224
2018-06-23T13:28:32.890Z,12220
2018-06-23T13:29:40.960Z,12532
2018-06-23T13:30:49.033Z,12320
2018-06-23T13:31:57.077Z,12228
2018-06-23T13:33:05.178Z,11528
2018-06-23T13:34:13.242Z,11648
2018-06-23T13:35:21.315Z,11044
2018-06-23T13:36:29.381Z,10592
2018-06-23T13:37:37.436Z,10748
2018-06-23T13:38:45.534Z,12492
2018-06-23T13:39:53.598Z,13152
2018-06-23T13:41:01.667Z,12540
2018-06-23T13:42:09.746Z,11700
2018-06-23T13:43:17.814Z,11620
2018-06-23T13:44:25.892Z,11656
2018-06-23T13:45:33.968Z,11144
2018-06-23T13:46:42.048Z,10896
2018-06-23T13:47:50.105Z,10488
2018-06-23T13:48:58.185Z,10020
2018-06-23T13:50:06.256Z,9928
2018-06-23T13:51:14.329Z,9016
2018-06-23T13:52:22.399Z,8336
2018-06-23T13:53:30.467Z,7308
2018-06-23T13:54:38.540Z,6888
2018-06-23T13:55:46.616Z,6884
2018-06-23T13:56:54.695Z,7036
2018-06-23T13:58:02.752Z,7272
2018-06-23T13:59:10.837Z,7528
2018-06-23T14:00:18.897Z,7644
2018-06-23T14:01:26.956Z,6804
2018-06-23T14:02:35.052Z,6192
2018-06-23T14:03:43.114Z,5820
2018-06-23T14:04:51.188Z,5488
2018-06-23T14:05:59.283Z,5516
2018-06-23T14:07:07.297Z,5848
2018-06-23T14:08:33.606Z,5900
2018-06-23T14:09:28.907Z,5792
2018-06-23T14:10:36.967Z,5704
2018-06-23T14:11:45.109Z,5472
2018-06-23T14:12:53.137Z,5536
2018-06-23T14:14:01.214Z,5736
2018-06-23T14:15:09.285Z,6048
2018-06-23T14:16:17.335Z,6260
2018-06-23T14:17:25.422Z,6728
2018-06-23T14:18:33.538Z,6780
2018-06-23T14:19:41.572Z,7008
2018-06-23T14:20:49.631Z,7464
2018-06-23T14:21:57.744Z,7544
2018-06-23T14:23:05.789Z,8040
2018-06-23T14:24:13.859Z,8384
2018-06-23T14:25:21.930Z,9216
2018-06-23T14:26:29.994Z,10288
2018-06-23T14:27:38.060Z,10484
2018-06-23T14:28:46.132Z,10576
2018-06-23T14:29:54.207Z,11104
2018-06-23T14:31:02.267Z,10908
2018-06-23T14:32:10.484Z,11132
2018-06-23T14:33:18.427Z,11296
2018-06-23T14:34:26.501Z,11384
2018-06-23T14:35:34.579Z,11372
2018-06-23T14:36:42.643Z,10736
2018-06-23T14:37:50.700Z,10124
2018-06-23T14:38:58.787Z,9696
2018-06-23T14:40:06.900Z,9360
2018-06-23T14:41:14.924Z,8956
2018-06-23T14:42:22.998Z,8232
2018-06-23T14:43:31.068Z,7504
2018-06-23T14:44:39.146Z,7052
2018-06-23T14:45:47.183Z,6812
2018-06-23T14:46:55.276Z,6560
2018-06-23T14:48:03.363Z,6196
2018-06-23T14:49:11.420Z,5860
2018-06-23T14:50:19.502Z,5580
2018-06-23T14:51:27.540Z,5408
2018-06-23T14:52:35.638Z,5400
2018-06-23T14:53:43.742Z,5424
2018-06-23T14:54:51.786Z,5576
2018-06-23T14:55:59.846Z,5840
2018-06-23T14:57:07.937Z,6180
2018-06-23T14:58:15.996Z,6436
2018-06-23T14:59:24.069Z,6740
2018-06-23T15:00:32.141Z,7032
2018-06-23T15:01:40.201Z,7208
2018-06-23T15:02:48.275Z,7264
2018-06-23T15:03:56.350Z,7380
2018-06-23T15:05:04.453Z,7364
2018-06-23T15:06:12.482Z,7324
2018-06-23T15:07:20.571Z,7472
2018-06-23T15:08:28.636Z,7884
2018-06-23T15:09:36.702Z,7888
2018-06-23T15:10:44.779Z,7600
2018-06-23T15:11:52.848Z,7240
2018-06-23T15:13:00.913Z,7004
2018-06-23T15:14:08.980Z,6884